sensor_id;sensor_type;location;lat;lon;timestamp;P1;durP1;ratioP1;P2;durP2;ratioP2
51985;SDS011;38002;53.296;6.600;2022-11-12T00:03:37;12.45;;;7.57;;
51985;SDS011;38002;53.296;6.600;2022-11-12T00:08:37;9.85;;;5.57;;
51985;SDS011;38002;53.296;6.600;2022-11-12T00:13:37;11.93;;;6.63;;
51985;SDS011;38002;53.296;6.600;2022-11-12T00:18:38;12.18;;;6.63;;
51985;SDS011;38002;53.296;6.600;2022-11-12T00:23:38;9.73;;;6.55;;
51985;SDS011;38002;53.296;6.600;2022-11-12T00:28:39;10.60;;;6.60;;
51985;SDS011;38002;53.296;6.600;2022-11-12T00:33:40;12.13;;;7.25;;
51985;SDS011;38002;53.296;6.600;2022-11-12T00:43:42;10.90;;;6.43;;
51985;SDS011;38002;53.296;6.600;2022-11-12T00:48:42;7.47;;;5.70;;
51985;SDS011;38002;53.296;6.600;2022-11-12T00:53:42;10.05;;;7.00;;
51985;SDS011;38002;53.296;6.600;2022-11-12T00:58:47;10.60;;;7.18;;
51985;SDS011;38002;53.296;6.600;2022-11-12T01:03:47;14.00;;;8.25;;
51985;SDS011;38002;53.296;6.600;2022-11-12T01:08:48;10.00;;;6.85;;
51985;SDS011;38002;53.296;6.600;2022-11-12T01:13:56;9.77;;;7.70;;
51985;SDS011;38002;53.296;6.600;2022-11-12T01:19:01;11.85;;;7.88;;
51985;SDS011;38002;53.296;6.600;2022-11-12T01:24:03;9.25;;;7.22;;
51985;SDS011;38002;53.296;6.600;2022-11-12T01:29:04;12.63;;;7.70;;
51985;SDS011;38002;53.296;6.600;2022-11-12T01:34:05;8.48;;;6.88;;
51985;SDS011;38002;53.296;6.600;2022-11-12T01:39:07;12.05;;;7.93;;
51985;SDS011;38002;53.296;6.600;2022-11-12T01:44:10;16.13;;;8.60;;
51985;SDS011;38002;53.296;6.600;2022-11-12T01:49:12;14.70;;;8.48;;
51985;SDS011;38002;53.296;6.600;2022-11-12T01:54:17;12.45;;;8.55;;
51985;SDS011;38002;53.296;6.600;2022-11-12T01:59:40;13.18;;;7.38;;
51985;SDS011;38002;53.296;6.600;2022-11-12T02:04:44;10.20;;;8.13;;
51985;SDS011;38002;53.296;6.600;2022-11-12T02:09:46;13.73;;;8.05;;
51985;SDS011;38002;53.296;6.600;2022-11-12T02:14:46;13.32;;;7.75;;
51985;SDS011;38002;53.296;6.600;2022-11-12T02:19:47;12.15;;;7.28;;
51985;SDS011;38002;53.296;6.600;2022-11-12T02:24:47;10.32;;;6.82;;
51985;SDS011;38002;53.296;6.600;2022-11-12T02:29:48;15.00;;;8.85;;
51985;SDS011;38002;53.296;6.600;2022-11-12T02:34:48;13.95;;;9.48;;
51985;SDS011;38002;53.296;6.600;2022-11-12T02:39:49;12.60;;;9.02;;
51985;SDS011;38002;53.296;6.600;2022-11-12T02:44:49;12.15;;;8.60;;
51985;SDS011;38002;53.296;6.600;2022-11-12T02:49:50;12.55;;;9.40;;
51985;SDS011;38002;53.296;6.600;2022-11-12T02:54:50;14.32;;;7.80;;
51985;SDS011;38002;53.296;6.600;2022-11-12T02:59:51;15.38;;;10.13;;
51985;SDS011;38002;53.296;6.600;2022-11-12T03:04:51;15.52;;;8.73;;
51985;SDS011;38002;53.296;6.600;2022-11-12T03:09:52;11.55;;;8.68;;
51985;SDS011;38002;53.296;6.600;2022-11-12T03:14:52;17.30;;;10.40;;
51985;SDS011;38002;53.296;6.600;2022-11-12T03:19:52;12.77;;;9.18;;
51985;SDS011;38002;53.296;6.600;2022-11-12T03:24:53;15.02;;;10.05;;
51985;SDS011;38002;53.296;6.600;2022-11-12T03:29:53;14.35;;;8.55;;
51985;SDS011;38002;53.296;6.600;2022-11-12T03:34:54;12.35;;;8.48;;
51985;SDS011;38002;53.296;6.600;2022-11-12T03:39:54;14.23;;;9.38;;
51985;SDS011;38002;53.296;6.600;2022-11-12T03:44:55;14.65;;;10.02;;
51985;SDS011;38002;53.296;6.600;2022-11-12T03:49:55;13.05;;;9.90;;
51985;SDS011;38002;53.296;6.600;2022-11-12T03:54:55;15.85;;;9.85;;
51985;SDS011;38002;53.296;6.600;2022-11-12T03:59:56;13.80;;;8.80;;
51985;SDS011;38002;53.296;6.600;2022-11-12T04:04:56;17.33;;;9.20;;
51985;SDS011;38002;53.296;6.600;2022-11-12T04:10:15;14.65;;;10.27;;
51985;SDS011;38002;53.296;6.600;2022-11-12T04:15:16;14.00;;;10.45;;
51985;SDS011;38002;53.296;6.600;2022-11-12T04:20:16;14.10;;;9.02;;
51985;SDS011;38002;53.296;6.600;2022-11-12T04:25:35;14.02;;;9.90;;
51985;SDS011;38002;53.296;6.600;2022-11-12T04:30:54;11.32;;;9.20;;
51985;SDS011;38002;53.296;6.600;2022-11-12T04:35:55;13.77;;;8.70;;
51985;SDS011;38002;53.296;6.600;2022-11-12T04:40:55;15.30;;;10.05;;
51985;SDS011;38002;53.296;6.600;2022-11-12T04:46:22;11.15;;;8.13;;
51985;SDS011;38002;53.296;6.600;2022-11-12T04:51:22;13.50;;;8.95;;
51985;SDS011;38002;53.296;6.600;2022-11-12T04:56:41;14.27;;;9.60;;
51985;SDS011;38002;53.296;6.600;2022-11-12T05:01:41;15.45;;;8.88;;
51985;SDS011;38002;53.296;6.600;2022-11-12T05:06:42;13.20;;;9.35;;
51985;SDS011;38002;53.296;6.600;2022-11-12T05:11:51;12.82;;;10.25;;
51985;SDS011;38002;53.296;6.600;2022-11-12T05:16:52;15.77;;;9.98;;
51985;SDS011;38002;53.296;6.600;2022-11-12T05:21:53;12.32;;;8.98;;
51985;SDS011;38002;53.296;6.600;2022-11-12T05:27:13;12.80;;;9.30;;
51985;SDS011;38002;53.296;6.600;2022-11-12T05:37:18;16.02;;;11.40;;
51985;SDS011;38002;53.296;6.600;2022-11-12T05:42:19;16.42;;;12.07;;
51985;SDS011;38002;53.296;6.600;2022-11-12T05:47:19;13.45;;;10.18;;
51985;SDS011;38002;53.296;6.600;2022-11-12T05:52:20;16.40;;;10.52;;
51985;SDS011;38002;53.296;6.600;2022-11-12T05:57:20;18.60;;;13.57;;
51985;SDS011;38002;53.296;6.600;2022-11-12T06:02:21;18.67;;;11.20;;
51985;SDS011;38002;53.296;6.600;2022-11-12T06:07:21;19.38;;;13.32;;
51985;SDS011;38002;53.296;6.600;2022-11-12T06:12:22;17.35;;;11.40;;
51985;SDS011;38002;53.296;6.600;2022-11-12T06:17:22;23.25;;;13.75;;
51985;SDS011;38002;53.296;6.600;2022-11-12T06:22:22;16.40;;;12.18;;
51985;SDS011;38002;53.296;6.600;2022-11-12T06:27:23;18.45;;;13.15;;
51985;SDS011;38002;53.296;6.600;2022-11-12T06:32:23;18.25;;;12.32;;
51985;SDS011;38002;53.296;6.600;2022-11-12T06:37:24;16.48;;;12.85;;
51985;SDS011;38002;53.296;6.600;2022-11-12T06:42:25;14.82;;;11.85;;
51985;SDS011;38002;53.296;6.600;2022-11-12T06:47:25;17.17;;;12.35;;
51985;SDS011;38002;53.296;6.600;2022-11-12T06:52:26;15.57;;;11.00;;
51985;SDS011;38002;53.296;6.600;2022-11-12T06:57:26;15.82;;;11.32;;
51985;SDS011;38002;53.296;6.600;2022-11-12T07:02:26;17.33;;;11.25;;
51985;SDS011;38002;53.296;6.600;2022-11-12T07:07:27;16.48;;;11.45;;
51985;SDS011;38002;53.296;6.600;2022-11-12T07:12:28;15.18;;;10.00;;
51985;SDS011;38002;53.296;6.600;2022-11-12T07:17:29;27.95;;;13.10;;
51985;SDS011;38002;53.296;6.600;2022-11-12T07:22:31;24.50;;;15.23;;
51985;SDS011;38002;53.296;6.600;2022-11-12T07:27:32;19.98;;;13.05;;
51985;SDS011;38002;53.296;6.600;2022-11-12T07:32:33;49.53;;;18.08;;
51985;SDS011;38002;53.296;6.600;2022-11-12T07:37:33;60.58;;;17.90;;
51985;SDS011;38002;53.296;6.600;2022-11-12T07:42:35;93.00;;;18.40;;
51985;SDS011;38002;53.296;6.600;2022-11-12T07:47:35;68.05;;;16.42;;
51985;SDS011;38002;53.296;6.600;2022-11-12T07:52:35;50.15;;;17.98;;
51985;SDS011;38002;53.296;6.600;2022-11-12T07:57:36;69.15;;;20.02;;
51985;SDS011;38002;53.296;6.600;2022-11-12T08:02:36;104.07;;;18.65;;
51985;SDS011;38002;53.296;6.600;2022-11-12T08:07:37;34.35;;;17.58;;
51985;SDS011;38002;53.296;6.600;2022-11-12T08:12:37;90.35;;;18.27;;
51985;SDS011;38002;53.296;6.600;2022-11-12T08:17:38;63.28;;;18.90;;
51985;SDS011;38002;53.296;6.600;2022-11-12T08:22:39;67.60;;;21.73;;
51985;SDS011;38002;53.296;6.600;2022-11-12T08:27:40;41.70;;;19.52;;
51985;SDS011;38002;53.296;6.600;2022-11-12T08:32:40;81.22;;;20.90;;
51985;SDS011;38002;53.296;6.600;2022-11-12T08:37:41;46.30;;;21.02;;
51985;SDS011;38002;53.296;6.600;2022-11-12T08:42:41;32.30;;;18.75;;
51985;SDS011;38002;53.296;6.600;2022-11-12T08:47:42;67.63;;;21.35;;
51985;SDS011;38002;53.296;6.600;2022-11-12T08:52:42;40.75;;;20.13;;
51985;SDS011;38002;53.296;6.600;2022-11-12T08:57:43;64.97;;;20.08;;
51985;SDS011;38002;53.296;6.600;2022-11-12T09:02:44;39.55;;;17.80;;
51985;SDS011;38002;53.296;6.600;2022-11-12T09:07:44;52.40;;;16.13;;
51985;SDS011;38002;53.296;6.600;2022-11-12T09:12:49;50.67;;;15.88;;
51985;SDS011;38002;53.296;6.600;2022-11-12T09:18:00;62.05;;;18.85;;
51985;SDS011;38002;53.296;6.600;2022-11-12T09:23:04;47.75;;;14.52;;
51985;SDS011;38002;53.296;6.600;2022-11-12T09:33:18;49.50;;;16.27;;
51985;SDS011;38002;53.296;6.600;2022-11-12T09:38:22;50.65;;;16.70;;
51985;SDS011;38002;53.296;6.600;2022-11-12T09:54:23;56.35;;;19.17;;
51985;SDS011;38002;53.296;6.600;2022-11-12T09:59:30;44.38;;;15.73;;
51985;SDS011;38002;53.296;6.600;2022-11-12T10:09:58;68.93;;;17.27;;
51985;SDS011;38002;53.296;6.600;2022-11-12T10:15:14;64.45;;;19.33;;
51985;SDS011;38002;53.296;6.600;2022-11-12T10:20:42;43.03;;;15.98;;
51985;SDS011;38002;53.296;6.600;2022-11-12T10:25:49;56.88;;;19.55;;
51985;SDS011;38002;53.296;6.600;2022-11-12T10:30:53;47.65;;;17.27;;
51985;SDS011;38002;53.296;6.600;2022-11-12T10:41:22;49.25;;;20.33;;
51985;SDS011;38002;53.296;6.600;2022-11-12T10:46:29;42.42;;;18.05;;
51985;SDS011;38002;53.296;6.600;2022-11-12T10:51:32;42.35;;;15.63;;
51985;SDS011;38002;53.296;6.600;2022-11-12T10:56:34;50.83;;;19.02;;
51985;SDS011;38002;53.296;6.600;2022-11-12T11:01:35;41.75;;;17.27;;
51985;SDS011;38002;53.296;6.600;2022-11-12T11:06:35;35.15;;;15.98;;
51985;SDS011;38002;53.296;6.600;2022-11-12T11:11:36;39.25;;;15.50;;
51985;SDS011;38002;53.296;6.600;2022-11-12T11:16:50;37.83;;;18.08;;
51985;SDS011;38002;53.296;6.600;2022-11-12T11:21:56;36.55;;;17.83;;
51985;SDS011;38002;53.296;6.600;2022-11-12T11:38:02;31.25;;;14.80;;
51985;SDS011;38002;53.296;6.600;2022-11-12T11:44:04;37.30;;;18.38;;
51985;SDS011;38002;53.296;6.600;2022-11-12T12:05:48;37.53;;;19.55;;
51985;SDS011;38002;53.296;6.600;2022-11-12T12:16:18;32.22;;;16.63;;
51985;SDS011;38002;53.296;6.600;2022-11-12T12:21:25;27.98;;;16.65;;
51985;SDS011;38002;53.296;6.600;2022-11-12T12:26:39;32.70;;;18.50;;
51985;SDS011;38002;53.296;6.600;2022-11-12T12:31:50;31.73;;;17.23;;
51985;SDS011;38002;53.296;6.600;2022-11-12T12:37:01;27.35;;;15.57;;
51985;SDS011;38002;53.296;6.600;2022-11-12T12:42:23;31.75;;;17.02;;
51985;SDS011;38002;53.296;6.600;2022-11-12T12:47:30;31.17;;;18.30;;
51985;SDS011;38002;53.296;6.600;2022-11-12T12:57:58;26.92;;;16.90;;
51985;SDS011;38002;53.296;6.600;2022-11-12T13:02:58;29.48;;;18.02;;
51985;SDS011;38002;53.296;6.600;2022-11-12T13:08:01;31.83;;;19.73;;
51985;SDS011;38002;53.296;6.600;2022-11-12T13:18:07;35.00;;;20.88;;
51985;SDS011;38002;53.296;6.600;2022-11-12T13:23:10;39.05;;;19.27;;
51985;SDS011;38002;53.296;6.600;2022-11-12T13:28:30;40.93;;;22.53;;
51985;SDS011;38002;53.296;6.600;2022-11-12T13:33:31;31.67;;;20.60;;
51985;SDS011;38002;53.296;6.600;2022-11-12T13:38:35;32.85;;;21.90;;
51985;SDS011;38002;53.296;6.600;2022-11-12T13:43:41;36.55;;;22.48;;
51985;SDS011;38002;53.296;6.600;2022-11-12T13:49:17;38.65;;;22.05;;
51985;SDS011;38002;53.296;6.600;2022-11-12T13:54:26;28.35;;;18.42;;
51985;SDS011;38002;53.296;6.600;2022-11-12T13:59:27;35.70;;;21.83;;
51985;SDS011;38002;53.296;6.600;2022-11-12T14:04:27;31.70;;;18.85;;
51985;SDS011;38002;53.296;6.600;2022-11-12T14:20:21;33.97;;;21.13;;
51985;SDS011;38002;53.296;6.600;2022-11-12T14:25:26;35.08;;;21.92;;
51985;SDS011;38002;53.296;6.600;2022-11-12T14:30:28;32.65;;;20.77;;
51985;SDS011;38002;53.296;6.600;2022-11-12T14:35:32;27.15;;;18.05;;
51985;SDS011;38002;53.296;6.600;2022-11-12T14:40:44;27.58;;;16.85;;
51985;SDS011;38002;53.296;6.600;2022-11-12T14:45:48;30.77;;;19.80;;
51985;SDS011;38002;53.296;6.600;2022-11-12T14:50:53;32.42;;;20.92;;
51985;SDS011;38002;53.296;6.600;2022-11-12T14:55:59;30.38;;;19.27;;
51985;SDS011;38002;53.296;6.600;2022-11-12T15:01:25;30.73;;;21.02;;
51985;SDS011;38002;53.296;6.600;2022-11-12T15:06:29;37.45;;;21.85;;
51985;SDS011;38002;53.296;6.600;2022-11-12T15:11:32;28.33;;;17.80;;
51985;SDS011;38002;53.296;6.600;2022-11-12T15:16:43;37.03;;;21.58;;
51985;SDS011;38002;53.296;6.600;2022-11-12T15:21:45;32.00;;;21.27;;
51985;SDS011;38002;53.296;6.600;2022-11-12T15:26:53;31.55;;;20.33;;
51985;SDS011;38002;53.296;6.600;2022-11-12T15:36:57;23.70;;;18.00;;
51985;SDS011;38002;53.296;6.600;2022-11-12T15:42:05;31.75;;;20.80;;
51985;SDS011;38002;53.296;6.600;2022-11-12T15:47:18;30.98;;;20.38;;
51985;SDS011;38002;53.296;6.600;2022-11-12T15:52:20;33.30;;;21.38;;
51985;SDS011;38002;53.296;6.600;2022-11-12T15:57:22;30.92;;;22.05;;
51985;SDS011;38002;53.296;6.600;2022-11-12T16:02:26;31.08;;;20.73;;
51985;SDS011;38002;53.296;6.600;2022-11-12T16:07:28;28.20;;;18.52;;
51985;SDS011;38002;53.296;6.600;2022-11-12T16:12:29;32.30;;;21.23;;
51985;SDS011;38002;53.296;6.600;2022-11-12T16:17:29;35.00;;;21.85;;
51985;SDS011;38002;53.296;6.600;2022-11-12T16:22:30;29.45;;;18.80;;
51985;SDS011;38002;53.296;6.600;2022-11-12T16:27:30;27.67;;;19.17;;
51985;SDS011;38002;53.296;6.600;2022-11-12T16:32:31;28.33;;;20.35;;
51985;SDS011;38002;53.296;6.600;2022-11-12T16:37:31;27.02;;;18.75;;
51985;SDS011;38002;53.296;6.600;2022-11-12T16:42:32;26.95;;;18.23;;
51985;SDS011;38002;53.296;6.600;2022-11-12T16:47:33;30.33;;;21.15;;
51985;SDS011;38002;53.296;6.600;2022-11-12T16:52:33;28.58;;;20.65;;
51985;SDS011;38002;53.296;6.600;2022-11-12T16:57:34;24.02;;;18.40;;
51985;SDS011;38002;53.296;6.600;2022-11-12T17:02:35;28.02;;;19.38;;
51985;SDS011;38002;53.296;6.600;2022-11-12T17:07:36;26.15;;;19.20;;
51985;SDS011;38002;53.296;6.600;2022-11-12T17:12:37;32.40;;;21.52;;
51985;SDS011;38002;53.296;6.600;2022-11-12T17:17:37;26.23;;;18.60;;
51985;SDS011;38002;53.296;6.600;2022-11-12T17:22:38;27.15;;;18.35;;
51985;SDS011;38002;53.296;6.600;2022-11-12T17:27:38;30.33;;;21.77;;
51985;SDS011;38002;53.296;6.600;2022-11-12T17:32:39;31.20;;;22.20;;
51985;SDS011;38002;53.296;6.600;2022-11-12T17:37:39;28.65;;;20.67;;
51985;SDS011;38002;53.296;6.600;2022-11-12T17:42:40;34.70;;;22.50;;
51985;SDS011;38002;53.296;6.600;2022-11-12T17:47:40;31.08;;;22.77;;
51985;SDS011;38002;53.296;6.600;2022-11-12T17:52:40;30.02;;;20.42;;
51985;SDS011;38002;53.296;6.600;2022-11-12T17:57:41;24.88;;;16.08;;
51985;SDS011;38002;53.296;6.600;2022-11-12T18:02:41;17.13;;;12.27;;
51985;SDS011;38002;53.296;6.600;2022-11-12T18:07:42;18.67;;;14.52;;
51985;SDS011;38002;53.296;6.600;2022-11-12T18:12:42;21.33;;;15.77;;
51985;SDS011;38002;53.296;6.600;2022-11-12T18:17:43;25.55;;;14.93;;
51985;SDS011;38002;53.296;6.600;2022-11-12T18:22:43;27.23;;;17.33;;
51985;SDS011;38002;53.296;6.600;2022-11-12T18:27:44;27.08;;;18.10;;
51985;SDS011;38002;53.296;6.600;2022-11-12T18:32:50;31.35;;;17.13;;
51985;SDS011;38002;53.296;6.600;2022-11-12T18:37:50;26.50;;;16.80;;
51985;SDS011;38002;53.296;6.600;2022-11-12T18:42:51;22.30;;;16.73;;
51985;SDS011;38002;53.296;6.600;2022-11-12T18:47:52;26.20;;;15.10;;
51985;SDS011;38002;53.296;6.600;2022-11-12T18:52:52;20.10;;;13.52;;
51985;SDS011;38002;53.296;6.600;2022-11-12T18:57:53;20.80;;;14.43;;
51985;SDS011;38002;53.296;6.600;2022-11-12T19:02:53;23.05;;;15.98;;
51985;SDS011;38002;53.296;6.600;2022-11-12T19:07:54;25.02;;;14.15;;
51985;SDS011;38002;53.296;6.600;2022-11-12T19:12:54;22.23;;;16.10;;
51985;SDS011;38002;53.296;6.600;2022-11-12T19:17:54;16.77;;;13.73;;
51985;SDS011;38002;53.296;6.600;2022-11-12T19:22:55;19.27;;;13.82;;
51985;SDS011;38002;53.296;6.600;2022-11-12T19:27:56;16.90;;;12.37;;
51985;SDS011;38002;53.296;6.600;2022-11-12T19:32:57;18.65;;;13.07;;
51985;SDS011;38002;53.296;6.600;2022-11-12T19:37:57;22.15;;;14.38;;
51985;SDS011;38002;53.296;6.600;2022-11-12T19:42:58;18.60;;;14.48;;
51985;SDS011;38002;53.296;6.600;2022-11-12T19:47:58;19.27;;;13.23;;
51985;SDS011;38002;53.296;6.600;2022-11-12T19:53:01;18.92;;;14.10;;
51985;SDS011;38002;53.296;6.600;2022-11-12T19:58:02;20.85;;;14.60;;
51985;SDS011;38002;53.296;6.600;2022-11-12T20:03:03;23.48;;;13.68;;
51985;SDS011;38002;53.296;6.600;2022-11-12T20:08:03;20.30;;;13.73;;
51985;SDS011;38002;53.296;6.600;2022-11-12T20:13:04;17.73;;;13.27;;
51985;SDS011;38002;53.296;6.600;2022-11-12T20:18:06;20.98;;;14.93;;
51985;SDS011;38002;53.296;6.600;2022-11-12T20:23:07;22.70;;;15.48;;
51985;SDS011;38002;53.296;6.600;2022-11-12T20:28:07;20.65;;;16.10;;
51985;SDS011;38002;53.296;6.600;2022-11-12T20:33:08;21.83;;;15.38;;
51985;SDS011;38002;53.296;6.600;2022-11-12T20:38:08;18.83;;;15.65;;
51985;SDS011;38002;53.296;6.600;2022-11-12T20:43:08;24.33;;;16.75;;
51985;SDS011;38002;53.296;6.600;2022-11-12T20:48:09;21.55;;;15.70;;
51985;SDS011;38002;53.296;6.600;2022-11-12T20:53:09;17.85;;;14.18;;
51985;SDS011;38002;53.296;6.600;2022-11-12T20:58:10;20.90;;;14.63;;
51985;SDS011;38002;53.296;6.600;2022-11-12T21:03:13;23.13;;;14.15;;
51985;SDS011;38002;53.296;6.600;2022-11-12T21:08:14;17.98;;;13.77;;
51985;SDS011;38002;53.296;6.600;2022-11-12T21:13:14;19.27;;;14.43;;
51985;SDS011;38002;53.296;6.600;2022-11-12T21:18:15;22.85;;;16.60;;
51985;SDS011;38002;53.296;6.600;2022-11-12T21:23:15;23.00;;;17.85;;
51985;SDS011;38002;53.296;6.600;2022-11-12T21:28:16;23.08;;;17.05;;
51985;SDS011;38002;53.296;6.600;2022-11-12T21:33:18;22.75;;;15.88;;
51985;SDS011;38002;53.296;6.600;2022-11-12T21:38:23;20.33;;;15.10;;
51985;SDS011;38002;53.296;6.600;2022-11-12T21:43:23;20.10;;;15.27;;
51985;SDS011;38002;53.296;6.600;2022-11-12T21:48:24;22.90;;;15.77;;
51985;SDS011;38002;53.296;6.600;2022-11-12T21:53:24;23.88;;;17.08;;
51985;SDS011;38002;53.296;6.600;2022-11-12T21:58:26;26.10;;;18.92;;
51985;SDS011;38002;53.296;6.600;2022-11-12T22:03:30;23.90;;;18.55;;
51985;SDS011;38002;53.296;6.600;2022-11-12T22:08:31;24.80;;;16.55;;
51985;SDS011;38002;53.296;6.600;2022-11-12T22:13:32;24.45;;;16.63;;
51985;SDS011;38002;53.296;6.600;2022-11-12T22:18:33;21.40;;;16.33;;
51985;SDS011;38002;53.296;6.600;2022-11-12T22:23:34;28.73;;;17.48;;
51985;SDS011;38002;53.296;6.600;2022-11-12T22:28:35;20.50;;;16.20;;
51985;SDS011;38002;53.296;6.600;2022-11-12T22:33:36;24.15;;;15.95;;
51985;SDS011;38002;53.296;6.600;2022-11-12T22:38:38;26.05;;;15.45;;
51985;SDS011;38002;53.296;6.600;2022-11-12T22:43:39;24.55;;;16.60;;
51985;SDS011;38002;53.296;6.600;2022-11-12T22:48:40;25.13;;;16.05;;
51985;SDS011;38002;53.296;6.600;2022-11-12T22:53:41;21.83;;;15.85;;
51985;SDS011;38002;53.296;6.600;2022-11-12T22:58:42;19.27;;;15.05;;
51985;SDS011;38002;53.296;6.600;2022-11-12T23:03:44;25.95;;;16.17;;
51985;SDS011;38002;53.296;6.600;2022-11-12T23:08:45;18.67;;;14.77;;
51985;SDS011;38002;53.296;6.600;2022-11-12T23:13:46;20.60;;;15.48;;
51985;SDS011;38002;53.296;6.600;2022-11-12T23:18:47;18.77;;;13.37;;
51985;SDS011;38002;53.296;6.600;2022-11-12T23:23:49;14.57;;;12.18;;
51985;SDS011;38002;53.296;6.600;2022-11-12T23:28:50;21.73;;;14.60;;
51985;SDS011;38002;53.296;6.600;2022-11-12T23:33:53;20.33;;;15.02;;
51985;SDS011;38002;53.296;6.600;2022-11-12T23:38:57;18.15;;;13.55;;
51985;SDS011;38002;53.296;6.600;2022-11-12T23:49:00;20.00;;;14.35;;
51985;SDS011;38002;53.296;6.600;2022-11-12T23:54:00;18.35;;;14.10;;
51985;SDS011;38002;53.296;6.600;2022-11-12T23:59:02;19.63;;;14.70;;
